x

Smith Island, Wa (sisw1) Weather Station

7:50am - Mon 21st Jan 2019 All times are PST. -8 hours from GMT.

  • Wind
    9mph, 10mph gusts
  • Air Temp 44°f
  • Sea Pressure 1023.2mb
  • Smith Island, Wa
  • Smith Island, Wa

More Historic Weather Station data

Upgrade to MSW Pro to gain access to the past 30 days of data for over 8000 Wavebouys and Weather Stations around the globe.

Join

Comparision Forecast

View Surf forecast
   
Mon 01/21 7:50am 9 10 mph 1023.2mb 44f
6:50am 7 8 mph 1022.2mb 44f
5:50am 7 9 mph 1021mb 44f
4:50am 7 8 mph 1020.1mb 44f
3:50am 14 14 mph 1019.4mb 45f
2:50am 13 15 mph 1018.9mb 45f
1:50am 9 11 mph 1018.1mb 45f
12:50am 11 14 mph 1017.5mb 45f
Sun 01/20 11:50pm 11 14 mph 1017mb 46f
10:50pm 15 17 mph 1016.3mb 45f
9:50pm 9 10 mph 1015.5mb 44f
8:50pm 9 10 mph 1015mb 45f
7:50pm 6 7 mph 1014.6mb 45f
6:50pm 7 8 mph 1014.2mb 45f
5:50pm 7 9 mph 1013.8mb 46f
4:50pm 9 10 mph 1013.4mb 46f
3:50pm 11 15 mph 1013mb 46f
2:50pm 15 18 mph 1012.8mb 46f
1:50pm 15 18 mph 1012.8mb 45f
12:50pm 11 14 mph 1012.9mb 45f
11:50am 16 18 mph 1013.1mb 45f
10:50am 17 20 mph 1013.7mb 44f
9:50am 14 15 mph 1013.9mb 44f
8:50am 9 14 mph 1014.1mb 45f
7:50am 9 10 mph 1014.6mb 44f
6:50am 9 11 mph 1015.1mb 44f
5:50am 8 9 mph 1016mb 44f
4:50am 8 9 mph 1016.9mb 44f
3:50am 9 9 mph 1017.7mb 45f
2:50am 6 7 mph 1018.5mb 45f
1:50am 8 9 mph 1019.3mb 45f
12:50am 7 8 mph 1020mb 46f
Sat 01/19 11:50pm 7 8 mph 1020.8mb 46f
10:50pm 9 10 mph 1021mb 47f
9:50pm 8 9 mph 1021.1mb 47f
8:50pm 7 9 mph 1021mb 48f
7:50pm 3 5 mph 1021mb 48f
6:50pm 8 9 mph 1021.1mb 48f
5:50pm 14 15 mph 1020.9mb 49f
4:50pm 5 6 mph 1020.8mb 49f
3:50pm 2 3 mph 1020.4mb 51f
2:50pm 10 11 mph 1019.8mb 50f
1:50pm 9 10 mph 1019.5mb 49f
12:50pm 7 8 mph 1019mb 48f
11:50am 10 11 mph 1018.7mb 49f
10:50am 11 13 mph 1018.8mb 48f
9:50am 14 15 mph 1018.3mb 47f
8:50am 6 8 mph 1017.5mb 47f
7:50am 10 13 mph 1016.4mb 48f
6:50am 15 18 mph 1015.5mb 48f
5:50am 17 21 mph 1014.8mb 49f
4:50am 8 11 mph 1014mb 50f
3:50am 7 10 mph 1013.1mb 49f
2:50am 16 22 mph 1011.6mb 48f
1:50am 30 37 mph 1009.1mb 49f
12:50am 33 41 mph 1007.6mb 48f
Fri 01/18 11:50pm 33 37 mph 1007.1mb 48f
10:50pm 33 40 mph 1006.9mb 47f
9:50pm 34 44 mph 1006.1mb 47f
8:50pm 34 41 mph 1007.3mb 46f
7:50pm 30 34 mph 1008.4mb 46f
6:50pm 25 28 mph 1010.7mb 47f
5:50pm 30 36 mph 1011.6mb 48f
4:50pm 23 26 mph 1013mb 48f
3:50pm 24 28 mph 1014.4mb 50f
2:50pm 32 38 mph 1014.7mb 50f
1:50pm 31 37 mph 1015.7mb 49f
12:50pm 25 30 mph 1016.7mb 48f
11:50am 32 38 mph 1017.2mb 47f
10:50am 29 33 mph 1017.9mb 47f
9:50am 24 29 mph 1017.9mb 47f
8:50am 18 21 mph 1017.9mb 47f
7:50am 21 24 mph 1017.1mb 47f
6:50am 14 17 mph 1016.6mb 49f
5:50am 7 8 mph 1016.2mb 48f
4:50am 10 11 mph 1014.8mb 49f
3:50am 14 16 mph 1013.7mb 49f
2:50am 14 17 mph 1013.1mb 50f
1:50am 11 14 mph 1011.9mb 49f
12:50am 14 16 mph 1010.4mb 49f
Thu 01/17 11:50pm 17 22 mph 1008.6mb 49f
10:50pm 28 31 mph 1006.7mb 49f
9:50pm 31 36 mph 1005.2mb 49f
8:50pm 30 34 mph 1004.1mb 50f
7:50pm 37 44 mph 1002.4mb 51f
6:50pm 39 46 mph 1000.8mb 51f
5:50pm 44 53 mph 999.4mb 51f